Time;durP1;ratioP1;P1;durP2;ratioP2;P2;SDS_P1;SDS_P2;PMS_P1;PMS_P2;Temp;Humidity;BMP_temperature;BMP_pressure;BME280_temperature;BME280_humidity;BME280_pressure;Samples;Min_cycle;Max_cycle;Signal;HPM_P1;HPM_P2
2022/03/15 00:01:37;;;;;;;22.02;14.60;;;;;;;2.59;87.70;102650.81;10499963;28;20113;-77
2022/03/15 00:06:38;;;;;;;27.63;14.18;;;;;;;2.51;87.94;102649.06;10483608;28;20107;-77
2022/03/15 00:11:38;;;;;;;23.23;14.52;;;;;;;2.37;87.78;102649.22;10499592;28;20025;-77
2022/03/15 00:16:39;;;;;;;25.80;14.20;;;;;;;2.29;87.75;102641.53;10481154;28;20078;-77
2022/03/15 00:21:39;;;;;;;24.27;16.02;;;;;;;2.23;88.22;102646.03;10464049;28;20024;-77
2022/03/15 00:26:40;;;;;;;29.92;17.58;;;;;;;2.15;88.15;102645.22;10499727;28;20375;-77
2022/03/15 00:31:41;;;;;;;32.33;15.80;;;;;;;2.11;88.61;102634.34;10481837;28;20040;-77
2022/03/15 00:36:42;;;;;;;29.60;16.73;;;;;;;2.14;88.75;102639.84;10464535;28;20455;-77
2022/03/15 00:41:42;;;;;;;25.55;15.90;;;;;;;2.09;88.50;102633.25;10479877;28;20039;-77
2022/03/15 00:46:43;;;;;;;26.33;16.83;;;;;;;2.09;88.97;102635.84;10464745;28;20504;-77
2022/03/15 00:51:43;;;;;;;25.67;17.00;;;;;;;2.16;89.61;102635.78;10481493;28;20036;-77
2022/03/15 00:56:44;;;;;;;32.47;18.20;;;;;;;2.26;89.75;102632.56;10497347;28;20119;-77
2022/03/15 01:01:45;;;;;;;25.50;17.52;;;;;;;2.34;89.85;102632.63;10479930;28;20178;-77
2022/03/15 01:06:45;;;;;;;38.05;17.52;;;;;;;2.37;89.76;102632.06;10462704;28;20032;-77
2022/03/15 01:11:46;;;;;;;23.55;17.75;;;;;;;2.49;89.63;102633.41;10496838;28;20060;-77
2022/03/15 01:16:46;;;;;;;33.13;19.05;;;;;;;2.56;89.39;102627.19;10447591;28;20056;-77
2022/03/15 01:21:47;;;;;;;25.83;16.83;;;;;;;2.65;89.25;102624.72;10479278;28;20067;-77
2022/03/15 01:26:51;;;;;;;28.10;17.83;;;;;;;2.59;89.20;102619.78;10479404;28;20067;-77
2022/03/15 01:31:52;;;;;;;31.92;16.77;;;;;;;2.57;89.11;102618.69;10462683;28;20507;-77
2022/03/15 01:36:52;;;;;;;18.23;14.07;;;;;;;2.44;88.23;102612.94;10462409;28;20157;-77
2022/03/15 01:41:52;;;;;;;22.00;14.73;;;;;;;2.44;88.88;102605.19;10478235;28;20060;-77
2022/03/15 01:46:53;;;;;;;26.85;16.02;;;;;;;2.41;88.72;102607.44;10462051;28;20178;-77
2022/03/15 01:51:54;;;;;;;25.67;15.63;;;;;;;2.38;89.17;102604.53;10462454;28;20036;-77
2022/03/15 01:56:55;;;;;;;23.70;15.68;;;;;;;2.33;89.06;102604.06;10461274;28;20060;-77
2022/03/15 02:01:55;;;;;;;21.60;15.45;;;;;;;2.27;88.62;102598.22;10495399;28;20516;-77
2022/03/15 02:07:12;;;;;;;21.15;15.43;;;;;;;2.22;89.09;102589.03;10477277;28;20058;-77
2022/03/15 02:12:14;;;;;;;22.95;15.75;;;;;;;2.25;89.69;102586.78;10464396;28;20039;-77
2022/03/15 02:17:14;;;;;;;15.50;11.53;;;;;;;2.25;89.05;102591.97;10488651;28;20031;-77
2022/03/15 02:22:15;;;;;;;24.48;14.82;;;;;;;2.33;89.13;102589.44;10461211;28;20052;-77
2022/03/15 02:27:15;;;;;;;25.55;15.80;;;;;;;2.25;89.29;102571.28;10494670;28;20439;-77
2022/03/15 02:32:16;;;;;;;25.60;14.98;;;;;;;2.24;89.25;102564.28;10495875;28;20033;-77
2022/03/15 02:37:16;;;;;;;29.65;16.45;;;;;;;2.32;89.74;102564.34;10476029;28;20036;-77
2022/03/15 02:42:17;;;;;;;35.08;17.38;;;;;;;2.34;89.83;102556.78;10461501;28;20028;-77
2022/03/15 02:47:18;;;;;;;24.80;16.52;;;;;;;2.37;89.31;102546.78;10476663;28;20052;-77
2022/03/15 02:52:18;;;;;;;21.30;15.40;;;;;;;2.33;89.63;102547.19;10476450;28;20036;-77
2022/03/15 02:57:21;;;;;;;23.00;16.27;;;;;;;2.28;89.09;102541.50;10495222;28;20059;-77
2022/03/15 03:02:21;;;;;;;28.35;16.83;;;;;;;2.30;89.28;102526.19;10478825;28;20048;-77
2022/03/15 03:07:22;;;;;;;18.95;14.25;;;;;;;2.31;89.07;102523.75;10459725;28;20067;-77
2022/03/15 03:12:25;;;;;;;19.83;14.18;;;;;;;2.25;89.43;102522.19;10460915;28;20028;-77
2022/03/15 03:17:27;;;;;;;23.48;14.90;;;;;;;2.25;89.04;102520.50;10442566;28;20392;-77
2022/03/15 03:22:27;;;;;;;24.15;15.93;;;;;;;2.31;89.44;102520.28;10476320;28;20540;-77
2022/03/15 03:27:27;;;;;;;25.55;14.98;;;;;;;2.26;88.90;102512.00;10476170;28;20068;-77
2022/03/15 03:32:28;;;;;;;25.02;17.05;;;;;;;2.18;89.10;102510.28;10467477;28;20040;-77
2022/03/15 03:37:29;;;;;;;24.27;16.52;;;;;;;2.16;89.11;102512.72;10483112;28;20110;-77
2022/03/15 03:42:30;;;;;;;25.95;17.13;;;;;;;2.13;89.40;102495.94;10483595;28;20119;-77
2022/03/15 03:47:30;;;;;;;24.27;16.33;;;;;;;2.13;89.85;102496.88;10499971;28;20143;-77
2022/03/15 03:52:31;;;;;;;25.25;17.05;;;;;;;2.23;89.87;102492.69;10482473;28;20028;-77
2022/03/15 03:57:31;;;;;;;28.05;15.73;;;;;;;2.33;89.97;102498.09;10484314;28;20377;-77
2022/03/15 04:02:32;;;;;;;26.63;15.30;;;;;;;2.41;89.49;102491.16;10483627;28;20564;-77
2022/03/15 04:07:35;;;;;;;19.52;13.82;;;;;;;2.45;89.67;102498.47;10466328;28;20039;-77
2022/03/15 04:12:36;;;;;;;27.88;15.75;;;;;;;2.44;89.16;102486.31;10499493;28;20107;-76
2022/03/15 04:17:37;;;;;;;27.05;17.77;;;;;;;2.48;89.42;102504.91;10449088;28;20123;-77
2022/03/15 04:22:38;;;;;;;21.70;14.98;;;;;;;2.45;89.07;102490.72;10464907;28;20033;-77
2022/03/15 04:27:39;;;;;;;22.40;14.63;;;;;;;2.43;89.42;102487.06;10500004;28;20127;-77
2022/03/15 04:32:39;;;;;;;20.60;14.02;;;;;;;2.42;89.45;102493.91;10499490;28;20052;-77
2022/03/15 04:37:40;;;;;;;24.73;14.30;;;;;;;2.42;89.28;102496.50;10497722;28;20094;-77
2022/03/15 04:42:40;;;;;;;22.60;14.05;;;;;;;2.47;89.18;102489.22;10464811;28;20037;-77
2022/03/15 04:47:41;;;;;;;21.10;14.70;;;;;;;2.47;89.53;102481.47;10497264;28;20072;-77
2022/03/15 04:52:41;;;;;;;19.70;12.10;;;;;;;2.54;89.01;102476.19;10482274;28;20036;-77
2022/03/15 04:57:42;;;;;;;21.20;12.38;;;;;;;2.63;88.66;102473.69;10480105;28;20063;-77
2022/03/15 05:02:44;;;;;;;21.70;12.27;;;;;;;2.72;88.29;102473.72;10479814;28;20027;-77
2022/03/15 05:07:44;;;;;;;17.13;11.93;;;;;;;2.70;87.82;102465.81;10481871;28;20502;-77
2022/03/15 05:12:45;;;;;;;19.02;11.95;;;;;;;2.71;87.57;102462.47;10497354;28;20051;-77
2022/03/15 05:17:46;;;;;;;20.15;9.45;;;;;;;2.76;87.06;102450.00;10471006;28;20056;-76
2022/03/15 05:22:50;;;;;;;18.60;9.50;;;;;;;2.60;87.05;102452.69;10444537;28;20399;-77
2022/03/15 05:27:50;;;;;;;18.05;10.50;;;;;;;2.58;87.39;102455.09;10479398;28;20234;-77
2022/03/15 05:32:51;;;;;;;19.98;10.13;;;;;;;2.51;87.62;102449.13;10505167;28;20517;-77
2022/03/15 05:37:51;;;;;;;16.90;9.35;;;;;;;2.57;88.01;102449.78;10491699;28;20034;-77
2022/03/15 05:42:52;;;;;;;16.65;9.93;;;;;;;2.51;87.43;102447.44;10496293;28;20039;-77
2022/03/15 05:47:53;;;;;;;31.73;11.25;;;;;;;2.45;88.02;102444.22;10460579;28;20071;-77
2022/03/15 05:52:54;;;;;;;15.02;10.68;;;;;;;2.40;88.29;102446.31;10477853;28;20094;-76
2022/03/15 05:57:55;;;;;;;16.10;9.43;;;;;;;2.40;88.66;102438.56;10494733;28;20036;-76
2022/03/15 06:02:55;;;;;;;19.10;11.65;;;;;;;2.48;88.99;102435.13;10461939;28;20063;-77
2022/03/15 06:07:56;;;;;;;16.63;8.98;;;;;;;2.52;88.65;102430.28;10436278;28;20033;-77
2022/03/15 06:12:56;;;;;;;15.70;8.32;;;;;;;2.60;88.74;102427.72;10459907;28;20411;-77
2022/03/15 06:17:57;;;;;;;15.73;9.23;;;;;;;2.74;88.15;102429.19;10454789;28;20044;-77
2022/03/15 06:22:59;;;;;;;17.98;9.55;;;;;;;2.82;88.46;102429.06;10492958;28;20032;-77
2022/03/15 06:27:59;;;;;;;16.93;9.90;;;;;;;2.98;87.54;102427.31;10442485;28;20039;-77
2022/03/15 06:33:00;;;;;;;18.77;9.20;;;;;;;2.90;88.13;102433.38;10476878;28;20075;-77
2022/03/15 06:38:01;;;;;;;17.48;7.97;;;;;;;2.97;87.94;102430.66;10476362;28;20141;-77
2022/03/15 06:43:02;;;;;;;19.63;8.77;;;;;;;3.13;88.22;102421.88;10473627;28;20067;-77
2022/03/15 06:48:03;;;;;;;16.20;8.93;;;;;;;3.29;87.71;102420.13;10460817;28;20072;-77
2022/03/15 06:53:03;;;;;;;23.67;9.65;;;;;;;3.44;87.33;102417.25;10457676;28;20024;-77
2022/03/15 06:58:04;;;;;;;15.95;6.95;;;;;;;3.64;86.19;102415.00;10493057;28;20122;-77
2022/03/15 07:03:06;;;;;;;13.27;7.32;;;;;;;3.77;86.14;102417.13;10475164;28;20071;-76
2022/03/15 07:08:06;;;;;;;15.70;6.95;;;;;;;3.93;85.11;102409.22;10467571;28;20051;-76
2022/03/15 07:13:07;;;;;;;18.42;7.47;;;;;;;4.09;84.93;102402.97;10501511;28;20029;-76
2022/03/15 07:18:08;;;;;;;16.40;8.02;;;;;;;4.26;84.09;102405.53;10482936;28;20123;-78
2022/03/15 07:23:08;;;;;;;16.27;6.70;;;;;;;4.50;81.95;102400.91;10463919;28;20530;-77
2022/03/15 07:28:08;;;;;;;12.43;7.00;;;;;;;4.65;81.37;102395.38;10435340;28;20514;-78
2022/03/15 07:33:09;;;;;;;17.40;9.85;;;;;;;4.87;81.44;102392.25;10477299;28;20063;-75
2022/03/15 07:38:10;;;;;;;13.63;7.43;;;;;;;5.01;80.00;102391.88;10486221;28;20025;-76
2022/03/15 07:43:10;;;;;;;18.48;6.13;;;;;;;5.25;78.54;102377.69;10496217;28;20599;-76
2022/03/15 07:48:11;;;;;;;11.23;6.05;;;;;;;5.38;77.43;102384.03;10502589;28;20440;-76
2022/03/15 07:53:11;;;;;;;13.38;6.50;;;;;;;5.54;77.53;102386.38;10454978;28;20033;-77
2022/03/15 07:58:12;;;;;;;16.70;6.22;;;;;;;5.70;77.46;102388.69;10457846;28;20032;-78
2022/03/15 08:03:12;;;;;;;12.32;6.05;;;;;;;5.79;76.05;102375.63;10475826;28;20523;-77
2022/03/15 08:08:13;;;;;;;17.75;5.57;;;;;;;5.95;76.65;102372.72;10443203;28;20477;-79
2022/03/15 08:13:14;;;;;;;11.25;4.97;;;;;;;6.01;75.78;102365.53;10450187;28;20056;-76
2022/03/15 08:18:14;;;;;;;11.00;4.90;;;;;;;6.12;75.65;102359.59;10465323;28;20125;-77
2022/03/15 08:23:17;;;;;;;13.27;5.55;;;;;;;6.23;74.72;102351.84;10461184;28;20040;-78
2022/03/15 08:28:17;;;;;;;15.30;7.03;;;;;;;6.22;74.00;102356.16;10470851;28;20082;-76
2022/03/15 08:33:18;;;;;;;13.98;5.30;;;;;;;6.28;74.94;102351.50;10482102;28;20397;-76
2022/03/15 08:38:18;;;;;;;15.15;5.25;;;;;;;6.44;74.52;102353.75;10456979;28;20029;-77
2022/03/15 08:43:20;;;;;;;5.72;4.30;;;;;;;6.54;73.97;102347.69;10465650;28;20079;-78
2022/03/15 08:48:21;;;;;;;13.15;6.50;;;;;;;6.68;73.43;102342.78;10443295;28;20043;-77
2022/03/15 08:53:23;;;;;;;11.95;4.70;;;;;;;6.78;72.76;102327.19;10483931;28;20368;-79
2022/03/15 08:58:23;;;;;;;12.13;5.00;;;;;;;6.91;71.81;102326.53;10468611;28;20040;-79
2022/03/15 09:03:24;;;;;;;9.98;4.57;;;;;;;7.09;71.73;102334.09;10468640;28;20037;-81
2022/03/15 09:08:24;;;;;;;11.65;4.65;;;;;;;7.17;71.05;102320.97;10463164;28;20056;-80
2022/03/15 09:13:27;;;;;;;9.23;4.10;;;;;;;7.27;70.84;102319.13;10445181;28;20518;-79
2022/03/15 09:18:30;;;;;;;8.90;4.57;;;;;;;7.30;70.16;102322.91;10480944;28;20049;-80
2022/03/15 09:23:30;;;;;;;6.20;3.95;;;;;;;7.33;70.08;102314.44;10479986;28;20476;-76
2022/03/15 09:28:31;;;;;;;12.13;4.60;;;;;;;7.33;69.95;102312.72;10444236;28;20033;-79
2022/03/15 09:33:32;;;;;;;15.18;5.80;;;;;;;7.37;69.94;102306.09;10487496;28;20116;-77
2022/03/15 09:38:32;;;;;;;13.32;4.30;;;;;;;7.40;70.72;102301.16;10446298;28;20150;-77
2022/03/15 09:43:40;;;;;;;11.73;4.68;;;;;;;7.48;70.44;102293.97;10454414;28;20049;-77
2022/03/15 09:48:41;;;;;;;10.90;4.03;;;;;;;7.68;69.92;102289.47;10484775;28;20119;-78
2022/03/15 09:53:42;;;;;;;14.50;6.65;;;;;;;7.79;70.16;102288.66;10438558;28;20107;-80
2022/03/15 09:58:43;;;;;;;9.55;4.82;;;;;;;7.98;69.14;102284.94;10460566;28;20029;-79
2022/03/15 10:03:45;;;;;;;7.78;4.22;;;;;;;8.06;69.57;102284.81;10467393;28;20017;-77
2022/03/15 10:08:45;;;;;;;12.15;6.60;;;;;;;8.07;69.55;102288.31;10466949;28;20024;-79
2022/03/15 10:13:47;;;;;;;16.77;7.25;;;;;;;8.03;68.35;102279.34;10446271;28;20392;-76
2022/03/15 10:18:56;;;;;;;12.95;5.03;;;;;;;8.05;68.85;102288.19;10460928;28;20049;-77
2022/03/15 10:23:58;;;;;;;15.05;6.00;;;;;;;8.11;69.65;102279.94;10471470;28;20058;-77
2022/03/15 10:28:58;;;;;;;9.02;4.82;;;;;;;8.10;69.53;102285.94;10449998;28;20369;-78
2022/03/15 10:34:01;;;;;;;10.48;5.30;;;;;;;7.91;72.45;102280.94;10458446;28;20123;-78
2022/03/15 10:39:03;;;;;;;11.57;6.82;;;;;;;7.76;75.53;102278.00;10443705;28;20094;-78
2022/03/15 10:44:04;;;;;;;12.18;5.18;;;;;;;7.74;76.19;102266.53;10461530;28;20040;-78
2022/03/15 10:49:04;;;;;;;15.75;7.85;;;;;;;8.04;76.11;102264.59;10495472;28;20052;-79
2022/03/15 10:54:06;;;;;;;12.85;6.03;;;;;;;8.30;76.90;102263.16;10434751;28;20434;-78
2022/03/15 10:59:06;;;;;;;14.15;6.90;;;;;;;8.62;75.92;102255.28;10427620;28;20024;-78
2022/03/15 11:04:09;;;;;;;13.45;5.88;;;;;;;8.75;76.15;102253.63;10473660;28;20021;-77
2022/03/15 11:09:18;;;;;;;;;;;;;;;8.81;75.88;102241.06;10466798;28;20487;-78
2022/03/15 11:14:40;;;;;;;13.45;6.45;;;;;;;8.87;77.45;102232.75;10499234;28;20423;-77
2022/03/15 11:19:48;;;;;;;18.03;7.30;;;;;;;8.96;75.84;102221.34;10493761;28;20028;-77
2022/03/15 11:25:27;;;;;;;10.35;6.68;;;;;;;9.14;76.36;102218.28;10444348;28;20033;-77
2022/03/15 11:30:28;;;;;;;9.40;5.25;;;;;;;9.18;76.58;102209.91;10489313;28;20052;-77
2022/03/15 11:35:31;;;;;;;12.73;6.05;;;;;;;9.16;76.42;102219.31;10471562;28;20028;-76
2022/03/15 11:40:32;;;;;;;8.80;5.18;;;;;;;9.15;77.60;102194.00;10451804;28;20395;-77
2022/03/15 11:45:40;;;;;;;11.27;6.20;;;;;;;9.46;78.52;102187.50;10463603;28;20127;-77
2022/03/15 11:51:13;;;;;;;7.93;5.53;;;;;;;9.79;78.37;102175.06;10456151;28;20451;-77
2022/03/15 11:56:27;;;;;;;11.63;6.68;;;;;;;9.84;78.77;102169.38;10468282;28;20037;-77
2022/03/15 12:01:30;;;;;;;10.88;6.63;;;;;;;9.84;78.37;102153.69;10462122;28;20021;-77
2022/03/15 12:06:31;;;;;;;9.73;4.82;;;;;;;9.70;77.14;102144.84;10452317;28;20067;-78
2022/03/15 12:11:35;;;;;;;10.35;5.75;;;;;;;9.96;78.63;102130.09;10464027;28;20361;-77
2022/03/15 12:16:50;;;;;;;13.95;6.40;;;;;;;10.60;76.29;102129.25;10448465;28;20102;-77
2022/03/15 12:21:55;;;;;;;7.70;5.35;;;;;;;11.20;73.69;102119.22;10458591;28;20033;-77
2022/03/15 12:27:00;;;;;;;7.82;4.82;;;;;;;11.40;71.57;102111.75;10463261;28;20039;-77
2022/03/15 12:32:13;;;;;;;7.45;4.75;;;;;;;11.41;70.48;102092.59;10470426;28;20483;-77
2022/03/15 12:37:13;;;;;;;12.93;5.93;;;;;;;11.07;71.33;102090.41;10455851;28;20055;-77
2022/03/15 12:42:15;;;;;;;7.03;4.97;;;;;;;11.24;72.40;102068.84;10442836;28;20025;-78
2022/03/15 12:47:21;;;;;;;12.07;7.05;;;;;;;11.28;72.12;102065.59;10467426;28;20047;-77
2022/03/15 12:52:22;;;;;;;12.75;5.90;;;;;;;11.27;73.78;102049.75;10445868;28;20566;-77
2022/03/15 12:57:23;;;;;;;8.75;5.28;;;;;;;11.70;71.91;102035.84;10476105;28;20124;-78
2022/03/15 13:02:24;;;;;;;9.15;4.93;;;;;;;12.07;68.87;102038.09;10431540;28;20049;-75
2022/03/15 13:07:28;;;;;;;6.18;3.50;;;;;;;12.90;64.17;102041.16;10488173;28;20036;-76
2022/03/15 13:12:33;;;;;;;8.10;4.53;;;;;;;13.55;62.77;102051.72;10469263;28;20029;-76
2022/03/15 13:17:34;;;;;;;9.95;4.32;;;;;;;13.78;62.86;102053.00;10456740;28;20048;-76
2022/03/15 13:22:35;;;;;;;12.18;6.28;;;;;;;14.10;63.85;102049.41;10472086;28;20090;-77
2022/03/15 13:27:39;;;;;;;8.05;5.13;;;;;;;13.60;64.06;102042.38;10472569;28;20089;-75
2022/03/15 13:32:40;;;;;;;8.18;4.70;;;;;;;13.50;63.60;102043.59;10459831;28;20020;-77
2022/03/15 13:37:41;;;;;;;6.88;3.58;;;;;;;13.62;61.95;102045.97;10436847;28;20516;-77
2022/03/15 13:42:43;;;;;;;5.72;2.53;;;;;;;13.58;58.43;102044.00;10456677;28;20060;-77
2022/03/15 13:47:52;;;;;;;4.13;2.60;;;;;;;13.49;58.16;102040.06;10417330;28;20040;-77
2022/03/15 13:52:53;;;;;;;10.15;3.47;;;;;;;13.67;59.16;102033.97;10409461;28;20485;-78
2022/03/15 13:57:54;;;;;;;7.00;2.60;;;;;;;13.87;58.92;102040.31;10394045;28;20119;-78
2022/03/15 14:03:06;;;;;;;5.30;3.53;;;;;;;13.09;56.59;102050.97;10397921;28;20046;-78
2022/03/15 14:08:12;;;;;;;7.13;3.50;;;;;;;12.80;57.17;102059.84;10362519;28;20048;-77
2022/03/15 14:13:21;;;;;;;8.02;4.78;;;;;;;12.38;59.56;102054.78;10410002;28;20433;-77
2022/03/15 14:18:26;;;;;;;8.27;3.42;;;;;;;12.74;58.11;102065.63;10427555;28;20053;-78
2022/03/15 14:23:36;;;;;;;6.85;3.72;;;;;;;12.97;58.31;102060.78;10433653;28;20393;-77
2022/03/15 14:28:52;;;;;;;16.50;5.57;;;;;;;12.75;58.57;102063.09;10380638;28;20045;-78
2022/03/15 14:34:00;;;;;;;4.95;2.80;;;;;;;12.86;57.01;102063.69;10374449;28;20124;-77
2022/03/15 14:39:13;;;;;;;7.72;3.28;;;;;;;12.55;56.95;102068.91;10369846;28;20041;-78
2022/03/15 14:44:16;;;;;;;11.90;3.42;;;;;;;12.42;57.06;102064.63;10394304;28;20045;-77
2022/03/15 14:49:21;;;;;;;9.30;3.60;;;;;;;12.79;57.75;102051.03;10428687;28;20166;-77
2022/03/15 14:54:27;;;;;;;7.63;3.28;;;;;;;13.81;54.07;102045.25;10420490;28;20037;-77
2022/03/15 14:59:32;;;;;;;7.18;2.58;;;;;;;13.78;52.91;102051.25;10429442;28;20376;-77
2022/03/15 15:04:33;;;;;;;6.57;3.95;;;;;;;13.27;53.21;102051.09;10425287;28;20025;-77
2022/03/15 15:09:40;;;;;;;9.18;3.65;;;;;;;12.66;56.13;102053.75;10406571;28;20094;-77
2022/03/15 15:14:42;;;;;;;10.00;4.15;;;;;;;12.98;57.50;102049.44;10440974;28;20128;-78
2022/03/15 15:19:49;;;;;;;6.78;3.20;;;;;;;12.76;54.89;102045.59;10433104;28;20481;-78
2022/03/15 15:24:58;;;;;;;6.60;3.65;;;;;;;11.94;57.41;102052.16;10465533;28;20118;-77
2022/03/15 15:30:02;;;;;;;11.27;3.30;;;;;;;11.46;58.04;102057.09;10471506;28;20089;-78
2022/03/15 15:35:11;;;;;;;7.47;3.60;;;;;;;10.95;59.87;102054.75;10478363;28;20032;-78
2022/03/15 15:40:13;;;;;;;3.72;2.75;;;;;;;10.58;61.40;102052.31;10467275;28;20048;-77
2022/03/15 15:45:18;;;;;;;8.10;3.65;;;;;;;10.33;62.10;102049.72;10462462;28;20500;-79
2022/03/15 15:50:25;;;;;;;8.25;5.20;;;;;;;10.23;63.41;102049.09;10488348;28;20041;-79
2022/03/15 15:55:30;;;;;;;18.70;10.93;;;;;;;10.19;64.28;102052.31;10430867;28;20052;-79
2022/03/15 16:00:39;;;;;;;7.65;3.65;;;;;;;10.21;63.26;102055.06;10453006;28;20032;-78
2022/03/15 16:05:46;;;;;;;11.68;7.60;;;;;;;10.10;63.73;102065.69;10455195;28;20044;-83
2022/03/15 16:10:51;;;;;;;10.38;3.80;;;;;;;10.13;63.60;102062.34;10477030;28;20025;-82
2022/03/15 16:15:52;;;;;;;4.05;2.90;;;;;;;10.15;63.22;102063.38;10447196;28;20048;-80
2022/03/15 16:20:55;;;;;;;7.35;3.70;;;;;;;10.13;64.21;102062.34;10476714;28;20102;-81
2022/03/15 16:25:59;;;;;;;5.47;3.93;;;;;;;9.98;64.58;102073.56;10466618;28;20493;-81
2022/03/15 16:31:11;;;;;;;10.05;3.80;;;;;;;9.71;64.62;102083.03;10497005;28;20818;-80
2022/03/15 16:36:16;;;;;;;8.45;3.25;;;;;;;9.38;65.93;102088.56;10464099;28;20488;-84
2022/03/15 16:41:32;;;;;;;7.38;3.30;;;;;;;8.98;67.08;102076.94;10446792;28;20041;-81
2022/03/15 16:46:39;;;;;;;5.00;3.17;;;;;;;8.58;68.38;102080.06;10458959;28;20103;-83
2022/03/15 16:51:41;;;;;;;7.60;3.53;;;;;;;8.22;69.72;102091.31;10420172;28;20483;-81
2022/03/15 16:56:46;;;;;;;6.25;3.67;;;;;;;7.93;70.66;102091.69;10440122;28;20040;-80
2022/03/15 17:01:49;;;;;;;11.20;6.45;;;;;;;7.75;72.09;102105.09;10469620;28;20090;-82
2022/03/15 17:06:49;;;;;;;;;;;;;;;7.53;73.64;102096.34;10467864;28;20477;-84
2022/03/15 17:12:01;;;;;;;13.60;5.88;;;;;;;7.34;74.83;102105.31;10441448;28;20011;-80
2022/03/15 17:17:09;;;;;;;11.50;6.57;;;;;;;7.24;75.12;102100.13;10437401;28;20052;-80
2022/03/15 17:22:22;;;;;;;12.10;6.47;;;;;;;7.14;75.30;102109.81;10438724;28;20131;-79
2022/03/15 17:27:31;;;;;;;13.98;5.90;;;;;;;6.98;76.12;102118.03;10411379;28;20052;-80
2022/03/15 17:32:39;;;;;;;10.57;7.13;;;;;;;6.73;76.79;102118.59;10420040;28;20049;-82
2022/03/15 17:38:04;;;;;;;6.45;5.35;;;;;;;6.36;78.01;102119.81;10434537;28;20434;-85
2022/03/15 17:48:33;;;;;;;16.13;11.13;;;;;;;5.92;79.72;102133.38;10454203;28;20029;-80
2022/03/15 17:53:34;;;;;;;32.63;18.45;;;;;;;5.80;80.61;102136.72;10485291;28;20033;-79
2022/03/15 17:58:35;;;;;;;12.85;8.30;;;;;;;5.65;81.42;102140.56;10490961;28;20032;-79
2022/03/15 18:03:40;;;;;;;14.25;8.30;;;;;;;5.70;82.42;102139.28;10457149;28;20044;-80
2022/03/15 18:08:42;;;;;;;11.00;7.60;;;;;;;5.64;81.99;102144.88;10452793;28;20818;-80
2022/03/15 18:13:58;;;;;;;16.23;8.40;;;;;;;5.54;82.74;102143.13;10427437;28;20089;-82
2022/03/15 18:19:00;;;;;;;20.95;9.43;;;;;;;5.34;82.86;102145.63;10459083;28;20064;-82
2022/03/15 18:24:06;;;;;;;13.98;8.95;;;;;;;5.21;83.40;102144.53;10473629;28;20120;-81
2022/03/15 18:29:08;;;;;;;66.93;39.70;;;;;;;5.12;83.85;102152.44;10493984;28;20025;-81
2022/03/15 18:34:11;;;;;;;15.97;7.57;;;;;;;5.08;84.67;102155.53;10477370;28;20024;-82
2022/03/15 18:39:12;;;;;;;15.82;9.82;;;;;;;5.00;84.59;102151.31;10493252;28;20028;-82
2022/03/15 18:44:13;;;;;;;21.33;12.10;;;;;;;4.95;85.54;102145.69;10456084;28;20399;-82
2022/03/15 18:49:16;;;;;;;16.97;9.70;;;;;;;5.03;85.52;102146.41;10461342;28;20037;-82
2022/03/15 18:54:17;;;;;;;23.90;15.35;;;;;;;4.89;85.81;102162.41;10495422;28;20495;-82
2022/03/15 18:59:17;;;;;;;19.27;10.45;;;;;;;4.96;86.36;102160.50;10460479;28;20057;-82
2022/03/15 19:04:18;;;;;;;18.08;13.82;;;;;;;4.85;86.54;102171.56;10474257;28;20078;-81
2022/03/15 19:09:19;;;;;;;27.60;14.55;;;;;;;4.78;86.61;102175.31;10444715;28;20043;-82
2022/03/15 19:14:20;;;;;;;29.80;14.68;;;;;;;4.66;87.08;102172.47;10486299;28;20523;-81
2022/03/15 19:19:21;;;;;;;19.17;13.20;;;;;;;4.47;87.35;102194.88;10458378;28;20087;-84
2022/03/15 19:24:22;;;;;;;22.30;14.10;;;;;;;4.29;87.72;102192.38;10481081;28;20444;-84
2022/03/15 19:29:24;;;;;;;23.10;14.75;;;;;;;4.13;88.13;102210.75;10462845;28;20503;-83
2022/03/15 19:34:25;;;;;;;30.95;17.77;;;;;;;4.00;88.07;102203.47;10501400;28;20124;-84
2022/03/15 19:39:26;;;;;;;25.25;15.80;;;;;;;3.81;87.94;102198.22;10483918;28;20028;-84
2022/03/15 19:44:27;;;;;;;28.98;15.63;;;;;;;3.58;88.23;102201.16;10482206;28;20068;-84
2022/03/15 19:49:27;;;;;;;25.80;16.05;;;;;;;3.45;88.87;102207.72;10501976;28;20037;-84
2022/03/15 19:54:28;;;;;;;24.67;16.95;;;;;;;3.27;88.75;102200.75;10500730;28;20391;-81
2022/03/15 19:59:28;;;;;;;24.85;16.00;;;;;;;3.15;89.33;102213.41;10501445;28;20534;-83
2022/03/15 20:04:30;;;;;;;28.17;16.75;;;;;;;3.05;89.35;102211.56;10493737;28;20056;-84
2022/03/15 20:09:30;;;;;;;30.43;20.40;;;;;;;2.98;89.56;102214.28;10449903;28;20040;-83
2022/03/15 20:14:34;;;;;;;28.58;18.38;;;;;;;2.86;89.93;102207.13;10493396;28;20373;-83
2022/03/15 20:19:35;;;;;;;35.78;22.85;;;;;;;2.74;89.83;102217.16;10448776;28;20395;-84
2022/03/15 20:24:36;;;;;;;29.58;19.30;;;;;;;2.58;89.81;102218.94;10483133;28;20061;-84
2022/03/15 20:29:37;;;;;;;35.27;25.27;;;;;;;2.48;90.29;102224.84;10482281;28;20042;-84
2022/03/15 20:34:38;;;;;;;32.55;19.30;;;;;;;2.32;90.58;102217.22;10498100;28;20071;-83
2022/03/15 20:39:38;;;;;;;44.28;24.20;;;;;;;2.19;90.12;102220.19;10481054;28;20055;-84
2022/03/15 20:44:39;;;;;;;33.13;22.13;;;;;;;1.97;89.84;102225.72;10496880;28;20102;-83
2022/03/15 20:49:39;;;;;;;36.65;23.65;;;;;;;1.86;90.26;102234.00;10500077;28;20388;-84
2022/03/15 20:54:40;;;;;;;40.17;26.45;;;;;;;1.91;90.76;102235.41;10481777;28;20060;-83
2022/03/15 20:59:43;;;;;;;41.42;24.38;;;;;;;1.72;90.96;102237.72;10497521;28;20458;-83
2022/03/15 21:04:44;;;;;;;33.97;23.00;;;;;;;1.58;90.86;102247.50;10479979;28;20016;-83
2022/03/15 21:09:44;;;;;;;33.30;22.40;;;;;;;1.40;91.06;102253.28;10488577;28;20448;-82
2022/03/15 21:14:45;;;;;;;39.80;24.20;;;;;;;1.28;91.34;102251.22;10470765;28;20109;-80
2022/03/15 21:19:50;;;;;;;37.30;20.73;;;;;;;1.40;91.14;102255.88;10441462;28;20061;-81
2022/03/15 21:24:54;;;;;;;26.70;17.52;;;;;;;1.30;91.06;102256.53;10477787;28;20033;-81
2022/03/15 21:29:54;;;;;;;72.78;23.23;;;;;;;1.20;91.36;102251.13;10473890;28;20404;-81
2022/03/15 21:34:55;;;;;;;434.73;68.10;;;;;;;1.10;91.52;102257.00;10453701;28;20059;-81
2022/03/15 21:39:57;;;;;;;42.15;26.38;;;;;;;0.88;91.60;102260.72;10444776;28;20056;-81
2022/03/15 21:44:58;;;;;;;;;;;;;;;0.71;91.95;102274.34;10478313;28;20041;-81
2022/03/15 21:50:00;;;;;;;28.67;19.55;;;;;;;0.65;92.15;102267.59;10479155;28;20019;-81
2022/03/15 21:55:07;;;;;;;;;;;;;;;0.77;92.56;102279.25;10496294;28;20029;-81
2022/03/15 22:00:11;;;;;;;36.05;24.70;;;;;;;0.77;92.54;102276.66;10480801;28;19912;-81
2022/03/15 22:05:18;;;;;;;46.75;25.58;;;;;;;0.65;92.40;102273.69;10469001;28;20029;-81
2022/03/15 22:10:18;;;;;;;49.53;33.53;;;;;;;0.73;93.31;102272.84;10471048;28;20037;-81
2022/03/15 22:15:18;;;;;;;57.28;38.38;;;;;;;0.77;92.89;102268.94;10451320;28;20064;-81
2022/03/15 22:20:21;;;;;;;58.20;31.80;;;;;;;0.70;93.10;102277.69;10437051;28;20448;-80
2022/03/15 22:25:22;;;;;;;54.38;31.15;;;;;;;0.73;92.79;102270.28;10461302;28;20468;-81
2022/03/15 23:17:59;;;;;;;84.50;51.13;;;;;;;0.25;94.04;102287.28;10479773;28;20420;-81
2022/03/15 23:22:59;;;;;;;81.30;45.08;;;;;;;0.24;93.88;102288.94;10460484;28;20052;-81
2022/03/15 23:28:05;;;;;;;65.05;41.60;;;;;;;0.21;94.10;102292.84;10495625;28;20025;-81
2022/03/15 23:33:07;;;;;;;93.55;49.58;;;;;;;0.36;94.08;102280.75;10476382;28;20476;-80
2022/03/15 23:38:08;;;;;;;79.93;46.92;;;;;;;0.26;93.44;102274.56;10451521;28;20029;-80
2022/03/15 23:43:08;;;;;;;93.75;52.65;;;;;;;0.25;94.02;102266.69;10456880;28;20504;-81
2022/03/15 23:48:09;;;;;;;92.72;52.28;;;;;;;0.13;93.47;102276.50;10423690;28;20052;-81
2022/03/15 23:53:09;;;;;;;77.00;46.22;;;;;;;0.00;94.14;102263.94;10498609;28;20075;-81
2022/03/15 23:58:10;;;;;;;90.53;51.83;;;;;;;0.12;93.67;102273.03;10441558;28;20112;-80
